Home > Products > Valid Products > MTR

000
SAUS45 KTWC 230252
MTRSAD
METAR KSAD 230251Z AUTO 32008KT 10SM CLR 27/12 A2997 RMK AO2 SLP100
T02720117 53002





000
SAUS45 KTWC 230152
MTRSAD
METAR KSAD 230151Z AUTO 31009KT 10SM CLR 29/11 A2996 RMK AO2 SLP095
T02890111





000
SAUS45 KTWC 230052
MTRSAD
METAR KSAD 230051Z AUTO 31005KT 10SM CLR 30/12 A2996 RMK AO2 SLP095
T03000117





000
SAUS45 KTWC 222353
MTRSAD
METAR KSAD 222351Z AUTO 19009KT 10SM SCT085 BKN110 29/13 A2997 RMK
AO2 RAB38E49 SLP097 P0000 60000 T02890133 10311 20278 55009





000
SAUS45 KTWC 222252
MTRSAD
METAR KSAD 222251Z AUTO 00000KT 10SM SCT120 31/12 A2996 RMK AO2
SLP093 T03110122





000
SAUS45 KTWC 222152
MTRSAD
METAR KSAD 222151Z AUTO VRB05KT 10SM FEW100 30/12 A2998 RMK AO2
RAE2059B20E37 TSB31E46 SLP099 P0000 T03000117





000
SAUS45 KTWC 222138
MTRSAD
SPECI KSAD 222137Z AUTO 19006KT 10SM TS FEW034 SCT095 29/13 A2999
RMK AO2 RAE2059B20E37 TSB31 P0000 T02890133





000
SAUS45 KTWC 222052
MTRSAD
METAR KSAD 222051Z AUTO 33007KT 10SM -RA FEW070 BKN100 29/13 A3000
RMK AO2 RAB48 SLP106 P0000 60000 T02940133 58019





000
SAUS45 KTWC 221952
MTRSAD
METAR KSAD 221951Z AUTO 10SM SCT065 30/12 A3002 RMK AO2 SLP114
T03000122





000
SAUS45 KTWC 221853
MTRSAD
METAR KSAD 221851Z AUTO 25008KT 10SM CLR 29/12 A3004 RMK AO2 SLP121
T02890122





000
SAUS45 KTWC 221752
MTRSAD
METAR KSAD 221751Z AUTO VRB06KT 10SM CLR 28/13 A3006 RMK AO2 SLP126
T02830133 10283 20200 58003





000
SAUS45 KTWC 221653
MTRSAD
METAR KSAD 221651Z AUTO 29005KT 10SM CLR 27/14 A3007 RMK AO2 SLP131
T02720144





000
SAUS45 KTWC 221553
MTRSAD
METAR KSAD 221551Z AUTO 32005KT 10SM CLR 26/16 A3007 RMK AO2 SLP133
T02560156





000
SAUS45 KTWC 221453
MTRSAD
METAR KSAD 221451Z AUTO 30003KT 10SM CLR 22/16 A3007 RMK AO2 SLP135
T02220161 51010





000
SAUS45 KTWC 221352
MTRSAD
METAR KSAD 221351Z AUTO 00000KT 10SM CLR 21/17 A3006 RMK AO2 SLP133
T02110167





000
SAUS45 KTWC 221252
MTRSAD
METAR KSAD 221251Z AUTO 33003KT 10SM CLR 20/17 A3005 RMK AO2 SLP130
T02000167





000
SAUS45 KTWC 221152
MTRSAD
METAR KSAD 221151Z AUTO 33003KT 10SM SCT100 22/16 A3004 RMK AO2
SLP123 T02170161 10244 20217 51006





000
SAUS45 KTWC 221052
MTRSAD
METAR KSAD 221051Z AUTO 27010KT 10SM BKN090 22/16 A3004 RMK AO2
SLP121 T02220156





000
SAUS45 KTWC 220952
MTRSAD
METAR KSAD 220951Z AUTO 31007KT 10SM FEW110 22/15 A3003 RMK AO2
SLP117 T02220150





000
SAUS45 KTWC 220852
MTRSAD
METAR KSAD 220851Z AUTO 29008KT 10SM CLR 23/13 A3002 RMK AO2 SLP111
T02330133 57004





000
SAUS45 KTWC 220752
MTRSAD
METAR KSAD 220751Z AUTO 29008KT 10SM CLR 22/16 A3002 RMK AO2 SLP113
T02220156





000
SAUS45 KTWC 220653
MTRSAD
METAR KSAD 220651Z AUTO 30010KT 10SM FEW120 23/15 A3003 RMK AO2
SLP115 T02330150 403220183





000
SAUS45 KTWC 220553
MTRSAD
METAR KSAD 220551Z AUTO 32007KT 10SM SCT100 BKN120 24/14 A3003 RMK
AO2 RAB13E29 SLP117 P0000 60000 T02440144 10283 20239 50008





000
SAUS45 KTWC 220452
MTRSAD
METAR KSAD 220451Z AUTO 32010KT 10SM FEW120 25/14 A3003 RMK AO2
SLP118 T02500144





000
SAUS45 KTWC 220353
MTRSAD
METAR KSAD 220351Z AUTO 31007KT 10SM CLR 26/12 A3003 RMK AO2 SLP118
T02560122





000
SAUS45 KTWC 220252
MTRSAD
METAR KSAD 220251Z AUTO 29007KT 10SM CLR 26/11 A3001 RMK AO2 SLP114
T02610111 53009





000
SAUS45 KTWC 220153
MTRSAD
METAR KSAD 220151Z AUTO 32012KT 10SM FEW120 27/10 A2999 RMK AO2
SLP109 T02720100





000
SAUS45 KTWC 220052
MTRSAD
METAR KSAD 220051Z AUTO 32018G23KT 10SM FEW120 28/11 A2998 RMK AO2
SLP107 T02780111





000
SAUS45 KTWC 212352
MTRSAD
METAR KSAD 212351Z AUTO 31014KT 10SM BKN120 28/13 A2998 RMK AO2
SLP104 T02830133 10322 20278 55007





000
SAUS45 KTWC 212252
MTRSAD
METAR KSAD 212251Z AUTO 30017G23KT 10SM BKN120 29/13 A2997 RMK AO2
SLP099 T02890133





000
SAUS45 KTWC 212152
MTRSAD
METAR KSAD 212151Z AUTO 32014KT 10SM OVC120 29/14 A2998 RMK AO2
SLP103 T02940139





000
SAUS45 KTWC 212052
MTRSAD
METAR KSAD 212051Z AUTO 31014G21KT 10SM BKN120 31/13 A3000 RMK AO2
SLP107 T03060133 56012





000
SAUS45 KTWC 211953
MTRSAD
METAR KSAD 211951Z AUTO 28012KT 10SM CLR 31/13 A3001 RMK AO2 SLP109
T03110133





000
SAUS45 KTWC 211853
MTRSAD
METAR KSAD 211851Z AUTO 28011G15KT 10SM CLR 31/14 A3002 RMK AO2
SLP113 T03060139





000
SAUS45 KTWC 211752
MTRSAD
METAR KSAD 211751Z AUTO 25005KT 10SM CLR 29/14 A3004 RMK AO2 SLP116
T02890139 10289 20183 58003





000
SAUS45 KTWC 211652
MTRSAD
METAR KSAD 211651Z AUTO 14003KT 10SM CLR 27/13 A3005 RMK AO2 SLP124
T02670133





000
SAUS45 KTWC 211552
MTRSAD
METAR KSAD 211551Z AUTO 12005KT 10SM CLR 25/14 A3004 RMK AO2 SLP123
T02500139





000
SAUS45 KTWC 211452
MTRSAD
METAR KSAD 211451Z AUTO 00000KT 10SM CLR 21/15 A3005 RMK AO2 SLP128
T02110150 52014





000
SAUS45 KTWC 211352
MTRSAD
METAR KSAD 211351Z AUTO 11004KT 10SM CLR 20/16 A3003 RMK AO2 SLP121
T02000161





000
SAUS45 KTWC 211252
MTRSAD
METAR KSAD 211251Z AUTO 08003KT 10SM CLR 18/16 A3001 RMK AO2 SLP116
T01830161





000
SAUS45 KTWC 211152
MTRSAD
METAR KSAD 211151Z AUTO 16004KT 10SM CLR 19/16 A3000 RMK AO2 SLP110
T01890161 10250 20183 53002





000
SAUS45 KTWC 211053
MTRSAD
METAR KSAD 211051Z AUTO 21004KT 10SM CLR 19/16 A3000 RMK AO2 SLP109
T01940161





000
SAUS45 KTWC 210953
MTRSAD
METAR KSAD 210951Z AUTO 05003KT 10SM CLR 21/17 A2999 RMK AO2 SLP103
T02060167





000
SAUS45 KTWC 210853
MTRSAD
METAR KSAD 210851Z AUTO 00000KT 10SM CLR 21/16 A2999 RMK AO2 SLP105
T02060161 53004





000
SAUS45 KTWC 210752
MTRSAD
METAR KSAD 210751Z AUTO 18004KT 10SM CLR 22/16 A2999 RMK AO2 SLP104
T02170156





000
SAUS45 KTWC 210652
MTRSAD
METAR KSAD 210651Z AUTO 00000KT 10SM CLR 22/17 A2998 RMK AO2 SLP101
T02220167 403110183





000
SAUS45 KTWC 210552
MTRSAD
METAR KSAD 210551Z AUTO 33009KT 10SM CLR 25/13 A2998 RMK AO2 SLP100
T02500133 10311 20239 51014





000
SAUS45 KTWC 210453
MTRSAD
METAR KSAD 210451Z AUTO 34007KT 10SM CLR 24/16 A2998 RMK AO2 SLP105
T02440156





000
SAUS45 KTWC 210352
MTRSAD
METAR KSAD 210351Z AUTO 30005KT 10SM FEW110 26/16 A2997 RMK AO2
SLP102 T02560156





000
SAUS45 KTWC 210252
MTRSAD
METAR KSAD 210251Z AUTO 33003KT 10SM CLR 27/14 A2993 RMK AO2 SLP089
T02670144 53004





000
SAUS45 KTWC 210152
MTRSAD
METAR KSAD 210151Z AUTO 35005KT 10SM SCT080 29/13 A2992 RMK AO2
SLP082 T02890128





000
SAUS45 KTWC 210052
MTRSAD
METAR KSAD 210051Z AUTO 27010KT 10SM CLR 30/12 A2992 RMK AO2 SLP081
T03000122





000
SAUS45 KTWC 202353
MTRSAD
METAR KSAD 202351Z AUTO 28005KT 10SM CLR 31/12 A2992 RMK AO2 SLP083
T03060122 10311 20261 56018





000
SAUS45 KTWC 202252
MTRSAD
METAR KSAD 202251Z AUTO 29009KT 10SM CLR 31/12 A2994 RMK AO2 SLP087
T03060117





000
SAUS45 KTWC 202152
MTRSAD
METAR KSAD 202151Z AUTO 27010KT 10SM CLR 31/13 A2996 RMK AO2 SLP096
T03060133





000
SAUS45 KTWC 202052
MTRSAD
METAR KSAD 202051Z AUTO 30010KT 10SM CLR 31/14 A2998 RMK AO2 LTG
DSNT S SLP102 T03060139 58020





000
SAUS45 KTWC 201952
MTRSAD
METAR KSAD 201951Z AUTO 30014G21KT 10SM CLR 29/14 A3000 RMK AO2
SLP110 T02940139





000
SAUS45 KTWC 201853
MTRSAD
METAR KSAD 201851Z AUTO 28011KT 10SM CLR 28/15 A3002 RMK AO2 SLP122
T02830150





000
SAUS45 KTWC 201752
MTRSAD
METAR KSAD 201751Z AUTO 29010KT 10SM FEW120 27/17 A3004 RMK AO2
SLP129 T02670167 10267 20183 58001





000
SAUS45 KTWC 201652
MTRSAD
METAR KSAD 201651Z AUTO 00000KT 10SM CLR 23/18 A3006 RMK AO2 SLP137
T02330183





000
SAUS45 KTWC 201552
MTRSAD
METAR KSAD 201551Z AUTO 00000KT 10SM CLR 22/18 A3005 RMK AO2 SLP135
T02220178





000
SAUS45 KTWC 201452
MTRSAD
METAR KSAD 201451Z AUTO VRB03KT 10SM CLR 21/18 A3005 RMK AO2 SLP136
T02060178 51008





000
SAUS45 KTWC 201352
MTRSAD
METAR KSAD 201351Z AUTO 00000KT 10SM FEW003 19/18 A3004 RMK AO2
SLP134 T01940178





000
SAUS45 KTWC 201347
MTRSAD
SPECI KSAD 201346Z AUTO 00000KT 9SM FEW002 19/18 A3004 RMK AO2





000
SAUS45 KTWC 201252
MTRSAD
METAR KSAD 201251Z AUTO 00000KT 8SM SCT012 SCT120 18/18 A3002 RMK
AO2 SLP128 T01830178





000
SAUS45 KTWC 201152
MTRSAD
METAR KSAD 201151Z AUTO 00000KT 8SM BKN010 18/18 A3000 RMK AO2
SLP122 70017 T01830178 10189 20183 53006





000
SAUS45 KTWC 201124
MTRSAD
SPECI KSAD 201123Z AUTO 00000KT 8SM SCT004 BKN013 18/18 A3000 RMK
AO2 T01830178





000
SAUS45 KTWC 201052
MTRSAD
METAR KSAD 201051Z AUTO 00000KT 10SM CLR 19/18 A2999 RMK AO2 SLP118
T01890178





000
SAUS45 KTWC 201009
MTRSAD
SPECI KSAD 201008Z AUTO 00000KT 9SM FEW007 19/18 A2998 RMK AO2
T01890183





000
SAUS45 KTWC 200952
MTRSAD
METAR KSAD 200951Z AUTO 00000KT 10SM CLR 19/18 A2998 RMK AO2 SLP113
T01890183





000
SAUS45 KTWC 200923
MTRSAD
SPECI KSAD 200922Z AUTO 00000KT 10SM FEW005 19/18 A2998 RMK AO2
T01890183





000
SAUS45 KTWC 200853
MTRSAD
METAR KSAD 200851Z AUTO 27007KT 10SM FEW015 19/18 A2998 RMK AO2
SLP108 T01890178 50002





000
SAUS45 KTWC 200849
MTRSAD
SPECI KSAD 200848Z AUTO 29006KT 10SM SCT015 19/18 A2998 RMK AO2





000
SAUS45 KTWC 200831
MTRSAD
SPECI KSAD 200830Z AUTO 29008KT 10SM FEW010 BKN015 19/18 A2999 RMK
AO2 T01890178





000
SAUS45 KTWC 200752
MTRSAD
METAR KSAD 200751Z AUTO 28005KT 10SM CLR 19/18 A2999 RMK AO2 SLP111
T01890178





000
SAUS45 KTWC 200652
MTRSAD
METAR KSAD 200651Z AUTO 06005KT 10SM CLR 18/17 A2998 RMK AO2 SLP109
T01830172 402720183





000
SAUS45 KTWC 200552
MTRSAD
METAR KSAD 200551Z AUTO 04005KT 10SM CLR 19/17 A3000 RMK AO2 SLP113
60002 T01890172 10206 20183 51012





000
SAUS45 KTWC 200452
MTRSAD
METAR KSAD 200451Z AUTO 13003KT 10SM CLR 19/17 A2998 RMK AO2 SLP111
T01890172





000
SAUS45 KTWC 200352
MTRSAD
METAR KSAD 200351Z AUTO 00000KT 10SM CLR 19/18 A2998 RMK AO2 SLP113
T01940178





    US Dept of Commerce
    National Oceanic and Atmospheric Administration
    National Weather Service
    1325 East West Highway
    Silver Spring, MD 20910
    Page Author: NWS Internet Services Team
Disclaimer
Information Quality
Credits
Glossary
Privacy Policy
Freedom of Information Act (FOIA)
About Us
Career Opportunities